Un Karadeniz — TCTD3 — position and weather

sailwx.info

Track history (hours):
 
Tides and Currents Weather Stations Pressure Air Temp Water Temp Dewpoint Dewpoint Depression Visibility Wind Speed Wind Dir Waves Ship Positions

Un Karadeniz

Last reported at 2017-Jun-24 16:41 UTC. Time now 2017-Jun-24 18:59 UTC.
Position N 40°54' E 017°47'.

Length 193 m; draft 6.8 m.

Type: Ship (hazmat cat A). MMSI: 271002571.

Date/timePositionNaut miles runAvg speedWind from/ knotsBaromVisibWave heightAir tempDewpointWater temp
2017-Jun-24 16:41N 40°54' E 017°47'819.2
2017-Jun-24 16:15N 40°50' E 017°57'819.1
2017-Jun-24 15:48N 40°45' E 018°06'21519.1
2017-Jun-24 04:33N 37°44' E 020°36'118.3
2017-Jun-24 04:30N 37°43' E 020°37'9418.6
2017-Jun-23 23:27N 36°35' E 021°58'7416.1
2017-Jun-23 18:49N 36°46' E 023°30'1119.1
2017-Jun-23 18:13N 36°56' E 023°37'619.1
2017-Jun-23 17:55N 37°01' E 023°41'819.1
2017-Jun-23 17:30N 37°07' E 023°47'1019.3
2017-Jun-23 17:00N 37°15' E 023°53'1019.5
2017-Jun-23 16:30N 37°23' E 024°00'16919.3
2017-Jun-23 07:46N 39°49' E 025°50'720.0
2017-Jun-23 07:26N 39°54' E 025°55'1318.9
2017-Jun-23 06:45N 40°01' E 026°09'1413.2
2017-Jun-23 05:40N 40°11' E 026°23'18 0.6
2017-Jun-22 00:17N 39°60' E 026°05'817.7
2017-Jun-21 23:51N 39°55' E 025°57'718.2
2017-Jun-21 23:28N 39°50' E 025°52'16718.9
2017-Jun-21 14:39N 37°23' E 024°12'1219.1
2017-Jun-21 14:00N 37°13' E 024°02'2419.1
2017-Jun-21 12:45N 36°55' E 023°43'819.2
2017-Jun-21 12:21N 36°49' E 023°36'619.2
2017-Jun-21 12:00N 36°44' E 023°31'1519.2
2017-Jun-21 11:12N 36°32' E 023°19'51818.2
2017-Jun-20 06:44N 42°44' E 015°32'419.0
2017-Jun-20 06:30N 42°48' E 015°28'6619.0
2017-Jun-20 03:02N 43°39' E 014°33'418.8
2017-Jun-20 02:48N 43°43' E 014°29'618.7
2017-Jun-20 02:29N 43°48' E 014°24'918.7
2017-Jun-20 02:00N 43°55' E 014°16'918.7
2017-Jun-20 01:31N 44°02' E 014°08'918.7
2017-Jun-20 01:01N 44°10' E 014°00'918.9
2017-Jun-20 00:31N 44°17' E 013°53'1019.1
2017-Jun-20 00:00N 44°26' E 013°46'1019.0
2017-Jun-19 23:30N 44°33' E 013°39'918.9
2017-Jun-19 23:00N 44°41' E 013°31'1019.2
2017-Jun-19 22:31N 44°49' E 013°23'1019.1
2017-Jun-19 22:00N 44°57' E 013°17'1019.1
2017-Jun-19 21:31N 45°06' E 013°10'1019.2
2017-Jun-19 21:01N 45°14' E 013°04'918.4
2017-Jun-19 20:30N 45°24' E 013°06'919.2
2017-Jun-19 20:00N 45°30' E 013°16'918.6
2017-Jun-19 19:31N 45°35' E 013°27'918.6
2017-Jun-19 19:01N 45°39' E 013°39'4 7.6
2017-Jun-19 18:29N 45°39' E 013°45'0 0.0
2017-Jun-19 18:00N 45°39' E 013°45'0 0.0
2017-Jun-19 17:30N 45°39' E 013°45'0 0.0
2017-Jun-19 17:00N 45°39' E 013°45'0 0.0
2017-Jun-19 16:30N 45°39' E 013°45'0 0.0
2017-Jun-19 16:00N 45°39' E 013°45'0 0.0
2017-Jun-19 15:30N 45°39' E 013°45'0 0.0
2017-Jun-19 15:00N 45°39' E 013°45'0 0.0
2017-Jun-19 14:30N 45°39' E 013°45'0 0.0
2017-Jun-19 13:30N 45°39' E 013°45'0 0.0
2017-Jun-19 13:00N 45°39' E 013°45'0 0.0
2017-Jun-19 12:30N 45°39' E 013°45'0 0.0
2017-Jun-19 12:00N 45°39' E 013°45'0 0.0
2017-Jun-19 11:30N 45°39' E 013°45'0 0.0
2017-Jun-19 11:00N 45°39' E 013°45'0 0.0
2017-Jun-19 10:30N 45°39' E 013°45'0 0.0
2017-Jun-19 10:00N 45°39' E 013°45'0 0.0
2017-Jun-19 09:30N 45°39' E 013°45'0 0.0
2017-Jun-19 09:00N 45°39' E 013°45'0 0.0
2017-Jun-19 08:30N 45°39' E 013°45'0 0.0
2017-Jun-19 08:00N 45°39' E 013°45'0 0.0
2017-Jun-19 07:30N 45°39' E 013°45'0 0.0
2017-Jun-19 07:00N 45°39' E 013°45'0 0.0
2017-Jun-19 06:30N 45°39' E 013°45'0 0.0
2017-Jun-19 06:00N 45°39' E 013°45'4 8.5
2017-Jun-19 05:30N 45°39' E 013°39'918.7
2017-Jun-19 05:00N 45°33' E 013°28'1018.9
2017-Jun-19 04:30N 45°26' E 013°18'918.4
2017-Jun-19 04:00N 45°18' E 013°15'1019.3
2017-Jun-19 03:30N 45°09' E 013°19'1019.3
2017-Jun-19 03:00N 44°60' E 013°25'1019.4
2017-Jun-19 02:30N 44°50' E 013°29'1019.8
2017-Jun-19 02:00N 44°42' E 013°37'1019.9
2017-Jun-19 01:30N 44°34' E 013°44'1019.8
2017-Jun-19 01:00N 44°25' E 013°52'1019.8
2017-Jun-19 00:30N 44°17' E 013°59'1519.6
2017-Jun-18 23:44N 44°05' E 014°12'519.8
2017-Jun-18 23:30N 44°01' E 014°15'62118.3
2017-Jun-17 13:41N 36°26' E 023°27'54011.8
2017-Jun-15 15:47N 36°48' E 034°39'  
Track history (hours):
 
Tides and Currents Weather Stations Pressure Air Temp Water Temp Dewpoint Dewpoint Depression Visibility Wind Speed Wind Dir Waves Ship Positions

Un Karadeniz

Last reported at 2017-Jun-24 16:41 UTC. Time now 2017-Jun-24 18:59 UTC.
Position N 40°54' E 017°47'.

Length 193 m; draft 6.8 m.

Type: Ship (hazmat cat A). MMSI: 271002571.

Date/timePositionNaut miles runAvg speedWind from/ knotsBaromVisibWave heightAir tempDewpointWater temp
2017-Jun-24 16:41N 40°54' E 017°47'819.2
2017-Jun-24 16:15N 40°50' E 017°57'819.1
2017-Jun-24 15:48N 40°45' E 018°06'21519.1
2017-Jun-24 04:33N 37°44' E 020°36'118.3
2017-Jun-24 04:30N 37°43' E 020°37'9418.6
2017-Jun-23 23:27N 36°35' E 021°58'7416.1
2017-Jun-23 18:49N 36°46' E 023°30'1119.1
2017-Jun-23 18:13N 36°56' E 023°37'619.1
2017-Jun-23 17:55N 37°01' E 023°41'819.1
2017-Jun-23 17:30N 37°07' E 023°47'1019.3
2017-Jun-23 17:00N 37°15' E 023°53'1019.5
2017-Jun-23 16:30N 37°23' E 024°00'16919.3
2017-Jun-23 07:46N 39°49' E 025°50'720.0
2017-Jun-23 07:26N 39°54' E 025°55'1318.9
2017-Jun-23 06:45N 40°01' E 026°09'1413.2
2017-Jun-23 05:40N 40°11' E 026°23'18 0.6
2017-Jun-22 00:17N 39°60' E 026°05'817.7
2017-Jun-21 23:51N 39°55' E 025°57'718.2
2017-Jun-21 23:28N 39°50' E 025°52'16718.9
2017-Jun-21 14:39N 37°23' E 024°12'1219.1
2017-Jun-21 14:00N 37°13' E 024°02'2419.1
2017-Jun-21 12:45N 36°55' E 023°43'819.2
2017-Jun-21 12:21N 36°49' E 023°36'619.2
2017-Jun-21 12:00N 36°44' E 023°31'1519.2
2017-Jun-21 11:12N 36°32' E 023°19'51818.2
2017-Jun-20 06:44N 42°44' E 015°32'419.0
2017-Jun-20 06:30N 42°48' E 015°28'6619.0
2017-Jun-20 03:02N 43°39' E 014°33'418.8
2017-Jun-20 02:48N 43°43' E 014°29'618.7
2017-Jun-20 02:29N 43°48' E 014°24'918.7
2017-Jun-20 02:00N 43°55' E 014°16'918.7
2017-Jun-20 01:31N 44°02' E 014°08'918.7
2017-Jun-20 01:01N 44°10' E 014°00'918.9
2017-Jun-20 00:31N 44°17' E 013°53'1019.1
2017-Jun-20 00:00N 44°26' E 013°46'1019.0
2017-Jun-19 23:30N 44°33' E 013°39'918.9
2017-Jun-19 23:00N 44°41' E 013°31'1019.2
2017-Jun-19 22:31N 44°49' E 013°23'1019.1
2017-Jun-19 22:00N 44°57' E 013°17'1019.1
2017-Jun-19 21:31N 45°06' E 013°10'1019.2
2017-Jun-19 21:01N 45°14' E 013°04'918.4
2017-Jun-19 20:30N 45°24' E 013°06'919.2
2017-Jun-19 20:00N 45°30' E 013°16'918.6
2017-Jun-19 19:31N 45°35' E 013°27'918.6
2017-Jun-19 19:01N 45°39' E 013°39'4 7.6
2017-Jun-19 18:29N 45°39' E 013°45'0 0.0
2017-Jun-19 18:00N 45°39' E 013°45'0 0.0
2017-Jun-19 17:30N 45°39' E 013°45'0 0.0
2017-Jun-19 17:00N 45°39' E 013°45'0 0.0
2017-Jun-19 16:30N 45°39' E 013°45'0 0.0
2017-Jun-19 16:00N 45°39' E 013°45'0 0.0
2017-Jun-19 15:30N 45°39' E 013°45'0 0.0
2017-Jun-19 15:00N 45°39' E 013°45'0 0.0
2017-Jun-19 14:30N 45°39' E 013°45'0 0.0
2017-Jun-19 13:30N 45°39' E 013°45'0 0.0
2017-Jun-19 13:00N 45°39' E 013°45'0 0.0
2017-Jun-19 12:30N 45°39' E 013°45'0 0.0
2017-Jun-19 12:00N 45°39' E 013°45'0 0.0
2017-Jun-19 11:30N 45°39' E 013°45'0 0.0
2017-Jun-19 11:00N 45°39' E 013°45'0 0.0
2017-Jun-19 10:30N 45°39' E 013°45'0 0.0
2017-Jun-19 10:00N 45°39' E 013°45'0 0.0
2017-Jun-19 09:30N 45°39' E 013°45'0 0.0
2017-Jun-19 09:00N 45°39' E 013°45'0 0.0
2017-Jun-19 08:30N 45°39' E 013°45'0 0.0
2017-Jun-19 08:00N 45°39' E 013°45'0 0.0
2017-Jun-19 07:30N 45°39' E 013°45'0 0.0
2017-Jun-19 07:00N 45°39' E 013°45'0 0.0
2017-Jun-19 06:30N 45°39' E 013°45'0 0.0
2017-Jun-19 06:00N 45°39' E 013°45'4 8.5
2017-Jun-19 05:30N 45°39' E 013°39'918.7
2017-Jun-19 05:00N 45°33' E 013°28'1018.9
2017-Jun-19 04:30N 45°26' E 013°18'918.4
2017-Jun-19 04:00N 45°18' E 013°15'1019.3
2017-Jun-19 03:30N 45°09' E 013°19'1019.3
2017-Jun-19 03:00N 44°60' E 013°25'1019.4
2017-Jun-19 02:30N 44°50' E 013°29'1019.8
2017-Jun-19 02:00N 44°42' E 013°37'1019.9
2017-Jun-19 01:30N 44°34' E 013°44'1019.8
2017-Jun-19 01:00N 44°25' E 013°52'1019.8
2017-Jun-19 00:30N 44°17' E 013°59'1519.6
2017-Jun-18 23:44N 44°05' E 014°12'519.8
2017-Jun-18 23:30N 44°01' E 014°15'62118.3
2017-Jun-17 13:41N 36°26' E 023°27'54011.8
2017-Jun-15 15:47N 36°48' E 034°39'  

Dump ship's entire track history